Airfield :
LOGIN :

Register | Disclaimer

   EN    FR    IT 

 










Legend :    VFR   Marginal VFR   IFR   Intensive IFR   Very Intensive IFR
Visi :
Ceiling :
>= 8 km
>= 3000ft
5 to 8 km
1000 to 3000 ft
1500m to 5 km
500 to 1000 ft
800 to 1500m
200 to 500 ft
< 800m
< 200 ft
Symbols :   Thunderstorms  Fog  Heavy snow  Heavy precipitations  Wind > 20 kt
SIGMETs :     Misc.  Thunderstorms  Icing  Turbulence  Mountain Waves  Volcanic Ashes







- Airport Elevation : 2001 ft
- IATA code : MAD


LEMD - Madrid

CURRENT METAR :
  • 191700Z 23005KT 190V290 9999 BKN068 13/08 Q1001 R88/19//95 NOSIG

EXPIRED METARs :
  • 191630Z 18003KT 140V230 9999 SCT030 BKN065 13/08 Q1001 R88/19//95 NOSIG
  • 191600Z 25005KT 9999 -DZ SCT032 BKN060 13/08 Q1001 NOSIG
  • 191530Z 24006KT 140V280 9999 SCT030 BKN050 13/08 Q1001 NOSIG
  • 191500Z 21005KT 150V280 9999 SCT035 BKN045 13/08 Q1001 NOSIG
  • 191430Z 25006KT 210V280 9999 SCT035 BKN052 14/08 Q1001 R32L/CLRD// R32R/CLRD// NOSIG

TAF TAF LEMD
Valid from the 19 at 12:00 until the 20 at 18:00 UTC


191100Z 1912/2018 VRB05KT 9999 SCT050 TX14/1915Z TN08/2006Z
BECMG 2007/2009 22014KT
PROB30
TEMPO 1922/2017 22010KT
PROB30
TEMPO 2001/2010 4000 RA BKN006
TEMPO 2010/2018 22018G28KT
No reported NOTAMs for that airfield.



MET'MAP, your aeronautical weather chart ! - Copyright ORBIFLY December 2007 - Disclaimer

ORBIFLY MET'MAP TEAM :

Programming & Development : Alexandra Zaïnal
Concept & Development : Baudouin d'Aumeries
Co-Development & Prog : Marc-Olivier Méhu
Technical & hardware support : Manuel Goepfert

Contact : metmap@orbifly.com




SOURCES & CREDITS :

   NOAA